sensor_id;sensor_type;location;lat;lon;timestamp;temperature;humidity
58993;DHT22;44782;0.000;0.000;2023-12-28T00:00:48;18.70;61.70
58993;DHT22;44782;0.000;0.000;2023-12-28T00:03:05;18.70;61.50
58993;DHT22;44782;0.000;0.000;2023-12-28T00:05:21;18.60;61.40
58993;DHT22;44782;0.000;0.000;2023-12-28T00:07:37;18.60;61.50
58993;DHT22;44782;0.000;0.000;2023-12-28T00:09:52;18.60;61.40
58993;DHT22;44782;0.000;0.000;2023-12-28T00:12:08;18.60;61.50
58993;DHT22;44782;0.000;0.000;2023-12-28T00:14:24;18.60;61.30
58993;DHT22;44782;0.000;0.000;2023-12-28T00:16:39;18.60;61.30
58993;DHT22;44782;0.000;0.000;2023-12-28T00:18:55;18.60;61.40
58993;DHT22;44782;0.000;0.000;2023-12-28T00:21:11;18.50;61.30
58993;DHT22;44782;0.000;0.000;2023-12-28T00:23:26;18.50;61.30
58993;DHT22;44782;0.000;0.000;2023-12-28T00:25:42;18.60;61.40
58993;DHT22;44782;0.000;0.000;2023-12-28T00:27:57;18.50;61.20
58993;DHT22;44782;0.000;0.000;2023-12-28T00:30:13;18.50;61.10
58993;DHT22;44782;0.000;0.000;2023-12-28T00:32:29;18.50;61.20
58993;DHT22;44782;0.000;0.000;2023-12-28T00:34:44;18.50;61.20
58993;DHT22;44782;0.000;0.000;2023-12-28T00:37:00;18.50;61.20
58993;DHT22;44782;0.000;0.000;2023-12-28T00:39:16;18.50;61.00
58993;DHT22;44782;0.000;0.000;2023-12-28T00:41:31;18.50;61.00
58993;DHT22;44782;0.000;0.000;2023-12-28T00:43:47;18.50;61.20
58993;DHT22;44782;0.000;0.000;2023-12-28T00:46:03;18.50;61.10
58993;DHT22;44782;0.000;0.000;2023-12-28T00:48:18;18.40;61.10
58993;DHT22;44782;0.000;0.000;2023-12-28T00:50:34;18.50;61.20
58993;DHT22;44782;0.000;0.000;2023-12-28T00:52:49;18.40;61.00
58993;DHT22;44782;0.000;0.000;2023-12-28T00:55:05;18.40;61.00
58993;DHT22;44782;0.000;0.000;2023-12-28T00:57:21;18.40;61.20
58993;DHT22;44782;0.000;0.000;2023-12-28T00:59:37;18.40;61.30
58993;DHT22;44782;0.000;0.000;2023-12-28T01:01:53;18.40;61.20
58993;DHT22;44782;0.000;0.000;2023-12-28T01:04:09;18.40;61.20
58993;DHT22;44782;0.000;0.000;2023-12-28T01:06:25;18.40;61.10
58993;DHT22;44782;0.000;0.000;2023-12-28T01:08:44;18.40;61.20
58993;DHT22;44782;0.000;0.000;2023-12-28T01:11:00;18.30;61.20
58993;DHT22;44782;0.000;0.000;2023-12-28T01:13:15;18.40;61.40
58993;DHT22;44782;0.000;0.000;2023-12-28T01:15:31;18.30;61.30
58993;DHT22;44782;0.000;0.000;2023-12-28T01:17:47;18.30;61.30
58993;DHT22;44782;0.000;0.000;2023-12-28T01:20:03;18.30;61.30
58993;DHT22;44782;0.000;0.000;2023-12-28T01:22:19;18.30;61.40
58993;DHT22;44782;0.000;0.000;2023-12-28T01:24:35;18.30;61.40
58993;DHT22;44782;0.000;0.000;2023-12-28T01:26:50;18.30;61.50
58993;DHT22;44782;0.000;0.000;2023-12-28T01:29:06;18.30;61.40
58993;DHT22;44782;0.000;0.000;2023-12-28T01:31:21;18.30;61.50
58993;DHT22;44782;0.000;0.000;2023-12-28T01:33:37;18.30;61.50
58993;DHT22;44782;0.000;0.000;2023-12-28T01:35:53;18.30;61.60
58993;DHT22;44782;0.000;0.000;2023-12-28T01:38:08;18.30;61.50
58993;DHT22;44782;0.000;0.000;2023-12-28T01:40:24;18.30;61.70
58993;DHT22;44782;0.000;0.000;2023-12-28T01:42:40;18.30;61.70
58993;DHT22;44782;0.000;0.000;2023-12-28T01:44:59;18.30;61.60
58993;DHT22;44782;0.000;0.000;2023-12-28T01:47:14;18.20;61.60
58993;DHT22;44782;0.000;0.000;2023-12-28T01:49:30;18.20;61.60
58993;DHT22;44782;0.000;0.000;2023-12-28T01:51:46;18.20;61.50
58993;DHT22;44782;0.000;0.000;2023-12-28T01:54:02;18.20;61.70
58993;DHT22;44782;0.000;0.000;2023-12-28T01:56:19;18.20;61.70
58993;DHT22;44782;0.000;0.000;2023-12-28T01:58:36;18.20;61.60
58993;DHT22;44782;0.000;0.000;2023-12-28T02:00:55;18.20;61.70
58993;DHT22;44782;0.000;0.000;2023-12-28T02:03:11;18.20;61.70
58993;DHT22;44782;0.000;0.000;2023-12-28T02:05:27;18.20;61.70
58993;DHT22;44782;0.000;0.000;2023-12-28T02:10:08;18.20;61.70
58993;DHT22;44782;0.000;0.000;2023-12-28T02:12:23;18.10;61.70
58993;DHT22;44782;0.000;0.000;2023-12-28T02:14:39;18.10;61.70
58993;DHT22;44782;0.000;0.000;2023-12-28T02:17:03;18.10;61.70
58993;DHT22;44782;0.000;0.000;2023-12-28T02:19:31;18.10;61.60
58993;DHT22;44782;0.000;0.000;2023-12-28T02:21:47;18.10;61.60
58993;DHT22;44782;0.000;0.000;2023-12-28T02:24:04;18.10;61.80
58993;DHT22;44782;0.000;0.000;2023-12-28T02:26:19;18.10;61.80
58993;DHT22;44782;0.000;0.000;2023-12-28T02:28:35;18.10;61.80
58993;DHT22;44782;0.000;0.000;2023-12-28T02:30:51;18.10;61.80
58993;DHT22;44782;0.000;0.000;2023-12-28T02:35:44;18.10;61.80
58993;DHT22;44782;0.000;0.000;2023-12-28T02:38:11;18.10;61.80
58993;DHT22;44782;0.000;0.000;2023-12-28T02:40:28;18.10;61.70
58993;DHT22;44782;0.000;0.000;2023-12-28T02:42:44;18.00;61.80
58993;DHT22;44782;0.000;0.000;2023-12-28T02:45:00;18.00;61.90
58993;DHT22;44782;0.000;0.000;2023-12-28T02:47:15;18.00;61.80
58993;DHT22;44782;0.000;0.000;2023-12-28T02:49:31;18.00;61.90
58993;DHT22;44782;0.000;0.000;2023-12-28T02:51:46;18.00;62.60
58993;DHT22;44782;0.000;0.000;2023-12-28T02:54:02;18.00;61.80
58993;DHT22;44782;0.000;0.000;2023-12-28T02:56:18;18.00;61.80
58993;DHT22;44782;0.000;0.000;2023-12-28T02:58:34;18.00;61.70
58993;DHT22;44782;0.000;0.000;2023-12-28T03:00:49;18.00;61.80
58993;DHT22;44782;0.000;0.000;2023-12-28T03:03:05;18.00;61.70
58993;DHT22;44782;0.000;0.000;2023-12-28T03:05:21;18.00;61.80
58993;DHT22;44782;0.000;0.000;2023-12-28T03:07:36;18.00;61.70
58993;DHT22;44782;0.000;0.000;2023-12-28T03:09:52;18.00;61.80
58993;DHT22;44782;0.000;0.000;2023-12-28T03:12:08;18.00;61.80
58993;DHT22;44782;0.000;0.000;2023-12-28T03:14:24;18.00;61.90
58993;DHT22;44782;0.000;0.000;2023-12-28T03:16:39;17.90;61.80
58993;DHT22;44782;0.000;0.000;2023-12-28T03:18:55;17.90;61.80
58993;DHT22;44782;0.000;0.000;2023-12-28T03:21:11;17.90;61.80
58993;DHT22;44782;0.000;0.000;2023-12-28T03:23:26;17.90;61.90
58993;DHT22;44782;0.000;0.000;2023-12-28T03:25:42;18.00;62.00
58993;DHT22;44782;0.000;0.000;2023-12-28T03:27:58;17.90;62.00
58993;DHT22;44782;0.000;0.000;2023-12-28T03:30:14;17.90;62.00
58993;DHT22;44782;0.000;0.000;2023-12-28T03:32:30;17.90;62.00
58993;DHT22;44782;0.000;0.000;2023-12-28T03:34:45;17.90;62.00
58993;DHT22;44782;0.000;0.000;2023-12-28T03:37:01;17.90;62.00
58993;DHT22;44782;0.000;0.000;2023-12-28T03:39:17;17.90;62.00
58993;DHT22;44782;0.000;0.000;2023-12-28T03:41:33;17.90;62.00
58993;DHT22;44782;0.000;0.000;2023-12-28T03:43:49;17.90;61.90
58993;DHT22;44782;0.000;0.000;2023-12-28T03:46:04;17.90;61.90
58993;DHT22;44782;0.000;0.000;2023-12-28T03:48:20;18.00;62.00
58993;DHT22;44782;0.000;0.000;2023-12-28T03:50:36;18.00;62.00
58993;DHT22;44782;0.000;0.000;2023-12-28T03:52:51;18.00;62.00
58993;DHT22;44782;0.000;0.000;2023-12-28T03:55:07;18.00;61.90
58993;DHT22;44782;0.000;0.000;2023-12-28T03:57:23;18.00;61.90
58993;DHT22;44782;0.000;0.000;2023-12-28T03:59:40;18.00;62.10
58993;DHT22;44782;0.000;0.000;2023-12-28T04:01:56;18.10;62.10
58993;DHT22;44782;0.000;0.000;2023-12-28T04:04:12;18.10;62.20
58993;DHT22;44782;0.000;0.000;2023-12-28T04:06:28;18.20;62.20
58993;DHT22;44782;0.000;0.000;2023-12-28T04:08:44;18.20;62.30
58993;DHT22;44782;0.000;0.000;2023-12-28T04:11:00;18.30;62.30
58993;DHT22;44782;0.000;0.000;2023-12-28T04:13:15;18.20;62.20
58993;DHT22;44782;0.000;0.000;2023-12-28T04:15:31;18.30;62.30
58993;DHT22;44782;0.000;0.000;2023-12-28T04:17:47;18.30;62.30
58993;DHT22;44782;0.000;0.000;2023-12-28T04:20:03;18.30;62.30
58993;DHT22;44782;0.000;0.000;2023-12-28T04:22:19;18.40;62.30
58993;DHT22;44782;0.000;0.000;2023-12-28T04:24:36;18.40;62.30
58993;DHT22;44782;0.000;0.000;2023-12-28T04:26:52;18.40;62.30
58993;DHT22;44782;0.000;0.000;2023-12-28T04:29:07;18.50;62.30
58993;DHT22;44782;0.000;0.000;2023-12-28T04:31:23;18.50;62.30
58993;DHT22;44782;0.000;0.000;2023-12-28T04:33:39;18.50;62.20
58993;DHT22;44782;0.000;0.000;2023-12-28T04:35:55;18.50;62.30
58993;DHT22;44782;0.000;0.000;2023-12-28T04:38:10;18.60;62.30
58993;DHT22;44782;0.000;0.000;2023-12-28T04:40:26;18.60;62.30
58993;DHT22;44782;0.000;0.000;2023-12-28T04:42:42;18.60;62.30
58993;DHT22;44782;0.000;0.000;2023-12-28T04:44:58;18.60;62.40
58993;DHT22;44782;0.000;0.000;2023-12-28T04:47:13;18.70;62.40
58993;DHT22;44782;0.000;0.000;2023-12-28T04:49:29;18.70;62.40
58993;DHT22;44782;0.000;0.000;2023-12-28T04:51:45;18.70;62.50
58993;DHT22;44782;0.000;0.000;2023-12-28T04:54:01;18.70;62.40
58993;DHT22;44782;0.000;0.000;2023-12-28T04:56:19;18.70;62.50
58993;DHT22;44782;0.000;0.000;2023-12-28T04:58:35;18.80;62.50
58993;DHT22;44782;0.000;0.000;2023-12-28T05:00:51;18.80;62.50
58993;DHT22;44782;0.000;0.000;2023-12-28T05:03:06;18.80;62.50
58993;DHT22;44782;0.000;0.000;2023-12-28T05:05:22;18.80;62.50
58993;DHT22;44782;0.000;0.000;2023-12-28T05:07:38;18.80;62.50
58993;DHT22;44782;0.000;0.000;2023-12-28T05:09:54;18.80;62.50
58993;DHT22;44782;0.000;0.000;2023-12-28T05:12:09;18.90;62.50
58993;DHT22;44782;0.000;0.000;2023-12-28T05:14:25;18.90;62.50
58993;DHT22;44782;0.000;0.000;2023-12-28T05:16:41;18.90;62.50
58993;DHT22;44782;0.000;0.000;2023-12-28T05:18:57;18.90;62.50
58993;DHT22;44782;0.000;0.000;2023-12-28T05:21:13;18.90;62.50
58993;DHT22;44782;0.000;0.000;2023-12-28T05:23:29;18.90;62.60
58993;DHT22;44782;0.000;0.000;2023-12-28T05:25:44;18.90;62.60
58993;DHT22;44782;0.000;0.000;2023-12-28T05:28:01;18.90;62.60
58993;DHT22;44782;0.000;0.000;2023-12-28T05:30:17;18.90;62.50
58993;DHT22;44782;0.000;0.000;2023-12-28T05:32:33;18.90;62.50
58993;DHT22;44782;0.000;0.000;2023-12-28T05:34:48;18.90;62.50
58993;DHT22;44782;0.000;0.000;2023-12-28T05:37:05;18.90;62.60
58993;DHT22;44782;0.000;0.000;2023-12-28T05:39:21;18.90;62.50
58993;DHT22;44782;0.000;0.000;2023-12-28T05:41:37;18.90;62.60
58993;DHT22;44782;0.000;0.000;2023-12-28T05:43:52;18.90;62.50
58993;DHT22;44782;0.000;0.000;2023-12-28T05:46:08;18.90;62.50
58993;DHT22;44782;0.000;0.000;2023-12-28T05:48:24;18.90;62.50
58993;DHT22;44782;0.000;0.000;2023-12-28T05:50:40;18.90;62.50
58993;DHT22;44782;0.000;0.000;2023-12-28T05:52:56;18.90;62.50
58993;DHT22;44782;0.000;0.000;2023-12-28T05:55:12;18.90;62.50
58993;DHT22;44782;0.000;0.000;2023-12-28T05:57:28;18.90;62.50
58993;DHT22;44782;0.000;0.000;2023-12-28T05:59:46;18.90;62.50
58993;DHT22;44782;0.000;0.000;2023-12-28T06:02:02;18.90;62.40
58993;DHT22;44782;0.000;0.000;2023-12-28T06:04:18;18.90;62.50
58993;DHT22;44782;0.000;0.000;2023-12-28T06:06:34;18.90;63.20
58993;DHT22;44782;0.000;0.000;2023-12-28T06:08:51;18.90;62.40
58993;DHT22;44782;0.000;0.000;2023-12-28T06:11:07;18.90;62.40
58993;DHT22;44782;0.000;0.000;2023-12-28T06:13:23;18.90;62.30
58993;DHT22;44782;0.000;0.000;2023-12-28T06:15:38;18.90;62.20
58993;DHT22;44782;0.000;0.000;2023-12-28T06:17:54;18.90;62.40
58993;DHT22;44782;0.000;0.000;2023-12-28T06:20:10;18.90;62.30
58993;DHT22;44782;0.000;0.000;2023-12-28T06:22:26;18.90;62.40
58993;DHT22;44782;0.000;0.000;2023-12-28T06:24:43;18.80;62.50
58993;DHT22;44782;0.000;0.000;2023-12-28T06:26:58;18.80;62.80
58993;DHT22;44782;0.000;0.000;2023-12-28T06:29:14;18.80;62.70
58993;DHT22;44782;0.000;0.000;2023-12-28T06:31:30;18.80;63.70
58993;DHT22;44782;0.000;0.000;2023-12-28T06:33:45;18.80;62.90
58993;DHT22;44782;0.000;0.000;2023-12-28T06:36:06;18.80;63.10
58993;DHT22;44782;0.000;0.000;2023-12-28T06:38:22;18.80;63.00
58993;DHT22;44782;0.000;0.000;2023-12-28T06:40:37;18.80;63.00
58993;DHT22;44782;0.000;0.000;2023-12-28T06:42:53;18.80;63.00
58993;DHT22;44782;0.000;0.000;2023-12-28T06:45:09;18.80;63.10
58993;DHT22;44782;0.000;0.000;2023-12-28T06:47:26;18.80;63.30
58993;DHT22;44782;0.000;0.000;2023-12-28T06:49:42;18.70;63.40
58993;DHT22;44782;0.000;0.000;2023-12-28T06:51:58;18.70;63.60
58993;DHT22;44782;0.000;0.000;2023-12-28T06:54:14;18.70;63.70
58993;DHT22;44782;0.000;0.000;2023-12-28T06:56:30;18.70;63.80
58993;DHT22;44782;0.000;0.000;2023-12-28T06:58:46;18.70;63.80
58993;DHT22;44782;0.000;0.000;2023-12-28T07:01:06;18.70;64.10
58993;DHT22;44782;0.000;0.000;2023-12-28T07:03:21;18.70;64.30
58993;DHT22;44782;0.000;0.000;2023-12-28T07:05:37;18.70;64.40
58993;DHT22;44782;0.000;0.000;2023-12-28T07:07:53;18.70;64.70
58993;DHT22;44782;0.000;0.000;2023-12-28T07:10:09;18.70;64.60
58993;DHT22;44782;0.000;0.000;2023-12-28T07:12:25;18.70;64.80
58993;DHT22;44782;0.000;0.000;2023-12-28T07:14:40;18.70;64.90
58993;DHT22;44782;0.000;0.000;2023-12-28T07:16:56;18.70;64.70
58993;DHT22;44782;0.000;0.000;2023-12-28T07:19:12;18.70;64.50
58993;DHT22;44782;0.000;0.000;2023-12-28T07:21:28;18.70;64.30
58993;DHT22;44782;0.000;0.000;2023-12-28T07:23:43;18.70;64.40
58993;DHT22;44782;0.000;0.000;2023-12-28T07:26:04;18.60;64.40
58993;DHT22;44782;0.000;0.000;2023-12-28T07:28:20;18.60;64.60
58993;DHT22;44782;0.000;0.000;2023-12-28T07:30:37;18.60;65.00
58993;DHT22;44782;0.000;0.000;2023-12-28T07:32:52;18.60;64.60
58993;DHT22;44782;0.000;0.000;2023-12-28T07:35:08;18.60;64.80
58993;DHT22;44782;0.000;0.000;2023-12-28T07:37:24;18.60;64.60
58993;DHT22;44782;0.000;0.000;2023-12-28T07:39:39;18.60;64.80
58993;DHT22;44782;0.000;0.000;2023-12-28T07:41:55;18.60;65.00
58993;DHT22;44782;0.000;0.000;2023-12-28T07:44:11;18.60;65.10
58993;DHT22;44782;0.000;0.000;2023-12-28T07:46:27;18.60;65.10
58993;DHT22;44782;0.000;0.000;2023-12-28T07:48:42;18.60;65.00
58993;DHT22;44782;0.000;0.000;2023-12-28T07:50:58;18.60;65.20
58993;DHT22;44782;0.000;0.000;2023-12-28T07:53:14;18.60;65.20
58993;DHT22;44782;0.000;0.000;2023-12-28T07:55:29;18.60;65.70
58993;DHT22;44782;0.000;0.000;2023-12-28T07:57:45;18.60;65.60
58993;DHT22;44782;0.000;0.000;2023-12-28T08:00:01;18.70;65.60
58993;DHT22;44782;0.000;0.000;2023-12-28T08:02:17;18.70;65.50
58993;DHT22;44782;0.000;0.000;2023-12-28T08:04:33;18.70;65.60
58993;DHT22;44782;0.000;0.000;2023-12-28T08:06:49;18.80;65.80
58993;DHT22;44782;0.000;0.000;2023-12-28T08:09:05;18.80;65.80
58993;DHT22;44782;0.000;0.000;2023-12-28T08:11:20;18.80;65.80
58993;DHT22;44782;0.000;0.000;2023-12-28T08:13:36;18.80;65.80
58993;DHT22;44782;0.000;0.000;2023-12-28T08:15:51;18.80;65.70
58993;DHT22;44782;0.000;0.000;2023-12-28T08:18:07;18.80;65.80
58993;DHT22;44782;0.000;0.000;2023-12-28T08:20:23;18.80;65.80
58993;DHT22;44782;0.000;0.000;2023-12-28T08:22:39;18.80;65.80
58993;DHT22;44782;0.000;0.000;2023-12-28T08:24:57;18.90;65.80
58993;DHT22;44782;0.000;0.000;2023-12-28T08:27:13;18.90;66.00
58993;DHT22;44782;0.000;0.000;2023-12-28T08:29:28;18.90;66.10
58993;DHT22;44782;0.000;0.000;2023-12-28T08:31:44;18.90;66.10
58993;DHT22;44782;0.000;0.000;2023-12-28T08:34:00;18.90;66.00
58993;DHT22;44782;0.000;0.000;2023-12-28T08:36:16;18.90;66.10
58993;DHT22;44782;0.000;0.000;2023-12-28T08:38:33;18.90;66.20
58993;DHT22;44782;0.000;0.000;2023-12-28T08:40:48;18.90;66.20
58993;DHT22;44782;0.000;0.000;2023-12-28T08:43:04;19.00;66.30
58993;DHT22;44782;0.000;0.000;2023-12-28T08:45:20;19.00;66.50
58993;DHT22;44782;0.000;0.000;2023-12-28T08:47:36;19.00;66.60
58993;DHT22;44782;0.000;0.000;2023-12-28T08:49:51;19.00;66.60
58993;DHT22;44782;0.000;0.000;2023-12-28T08:52:07;19.00;66.70
58993;DHT22;44782;0.000;0.000;2023-12-28T08:54:22;19.00;66.80
58993;DHT22;44782;0.000;0.000;2023-12-28T08:56:38;19.00;66.80
58993;DHT22;44782;0.000;0.000;2023-12-28T08:58:54;19.10;67.00
58993;DHT22;44782;0.000;0.000;2023-12-28T09:01:18;19.10;67.00
58993;DHT22;44782;0.000;0.000;2023-12-28T09:03:34;19.10;67.40
58993;DHT22;44782;0.000;0.000;2023-12-28T09:05:49;19.10;67.10
58993;DHT22;44782;0.000;0.000;2023-12-28T09:08:05;19.10;67.20
58993;DHT22;44782;0.000;0.000;2023-12-28T09:10:21;19.20;67.30
58993;DHT22;44782;0.000;0.000;2023-12-28T09:12:37;19.20;67.50
58993;DHT22;44782;0.000;0.000;2023-12-28T09:14:53;19.20;67.60
58993;DHT22;44782;0.000;0.000;2023-12-28T09:17:08;19.20;67.90
58993;DHT22;44782;0.000;0.000;2023-12-28T09:19:24;19.20;67.90
58993;DHT22;44782;0.000;0.000;2023-12-28T09:21:40;19.20;68.00
58993;DHT22;44782;0.000;0.000;2023-12-28T09:23:56;19.30;68.20
58993;DHT22;44782;0.000;0.000;2023-12-28T09:26:12;19.30;68.20
58993;DHT22;44782;0.000;0.000;2023-12-28T09:28:28;19.30;68.20
58993;DHT22;44782;0.000;0.000;2023-12-28T09:30:43;19.30;68.40
58993;DHT22;44782;0.000;0.000;2023-12-28T09:32:59;19.30;68.40
58993;DHT22;44782;0.000;0.000;2023-12-28T09:35:15;19.30;68.40
58993;DHT22;44782;0.000;0.000;2023-12-28T09:37:30;19.30;68.50
58993;DHT22;44782;0.000;0.000;2023-12-28T09:39:46;19.30;68.70
58993;DHT22;44782;0.000;0.000;2023-12-28T09:42:09;19.30;68.60
58993;DHT22;44782;0.000;0.000;2023-12-28T09:44:30;19.30;68.90
58993;DHT22;44782;0.000;0.000;2023-12-28T09:46:46;19.30;68.60
58993;DHT22;44782;0.000;0.000;2023-12-28T09:49:02;19.30;68.70
58993;DHT22;44782;0.000;0.000;2023-12-28T09:51:19;19.30;68.90
58993;DHT22;44782;0.000;0.000;2023-12-28T09:53:35;19.30;68.80
58993;DHT22;44782;0.000;0.000;2023-12-28T09:55:51;19.30;68.80
58993;DHT22;44782;0.000;0.000;2023-12-28T09:58:08;19.30;68.80
58993;DHT22;44782;0.000;0.000;2023-12-28T10:00:25;19.30;69.80
58993;DHT22;44782;0.000;0.000;2023-12-28T10:02:43;19.30;69.00
58993;DHT22;44782;0.000;0.000;2023-12-28T10:05:00;19.30;69.10
58993;DHT22;44782;0.000;0.000;2023-12-28T10:07:15;19.30;69.10
58993;DHT22;44782;0.000;0.000;2023-12-28T10:09:31;19.30;69.30
58993;DHT22;44782;0.000;0.000;2023-12-28T10:11:49;19.30;69.20
58993;DHT22;44782;0.000;0.000;2023-12-28T10:14:04;19.30;69.10
58993;DHT22;44782;0.000;0.000;2023-12-28T10:16:22;19.30;68.90
58993;DHT22;44782;0.000;0.000;2023-12-28T10:18:44;19.30;68.90
58993;DHT22;44782;0.000;0.000;2023-12-28T10:21:00;19.30;69.10
58993;DHT22;44782;0.000;0.000;2023-12-28T10:23:17;19.30;69.00
58993;DHT22;44782;0.000;0.000;2023-12-28T10:25:33;19.30;68.60
58993;DHT22;44782;0.000;0.000;2023-12-28T10:27:52;19.30;68.80
58993;DHT22;44782;0.000;0.000;2023-12-28T10:30:09;19.30;68.90
58993;DHT22;44782;0.000;0.000;2023-12-28T10:32:25;19.30;68.80
58993;DHT22;44782;0.000;0.000;2023-12-28T10:34:41;19.30;68.70
58993;DHT22;44782;0.000;0.000;2023-12-28T10:36:59;19.40;68.50
58993;DHT22;44782;0.000;0.000;2023-12-28T10:39:16;19.30;68.60
58993;DHT22;44782;0.000;0.000;2023-12-28T10:41:35;19.30;68.70
58993;DHT22;44782;0.000;0.000;2023-12-28T10:44:19;19.40;68.70
58993;DHT22;44782;0.000;0.000;2023-12-28T10:46:40;19.40;69.60
58993;DHT22;44782;0.000;0.000;2023-12-28T10:49:12;19.30;69.00
58993;DHT22;44782;0.000;0.000;2023-12-28T10:51:28;19.40;69.30
58993;DHT22;44782;0.000;0.000;2023-12-28T10:56:27;19.40;69.00
58993;DHT22;44782;0.000;0.000;2023-12-28T11:01:32;19.30;69.10
58993;DHT22;44782;0.000;0.000;2023-12-28T11:03:57;19.30;69.80
58993;DHT22;44782;0.000;0.000;2023-12-28T11:06:16;19.30;69.20
58993;DHT22;44782;0.000;0.000;2023-12-28T11:08:32;19.30;69.40
58993;DHT22;44782;0.000;0.000;2023-12-28T11:10:51;19.30;69.30
58993;DHT22;44782;0.000;0.000;2023-12-28T11:13:08;19.30;69.20
58993;DHT22;44782;0.000;0.000;2023-12-28T11:15:26;19.30;69.40
58993;DHT22;44782;0.000;0.000;2023-12-28T11:17:42;19.30;69.40
58993;DHT22;44782;0.000;0.000;2023-12-28T11:19:58;19.30;69.40
58993;DHT22;44782;0.000;0.000;2023-12-28T11:22:15;19.30;69.20
58993;DHT22;44782;0.000;0.000;2023-12-28T11:24:31;19.30;69.30
58993;DHT22;44782;0.000;0.000;2023-12-28T11:26:52;19.30;69.50
58993;DHT22;44782;0.000;0.000;2023-12-28T11:29:10;19.30;69.40
58993;DHT22;44782;0.000;0.000;2023-12-28T11:31:26;19.30;69.30
58993;DHT22;44782;0.000;0.000;2023-12-28T11:33:51;19.30;69.10
58993;DHT22;44782;0.000;0.000;2023-12-28T11:36:09;19.30;68.80
58993;DHT22;44782;0.000;0.000;2023-12-28T11:38:25;19.20;69.10
58993;DHT22;44782;0.000;0.000;2023-12-28T11:40:42;19.20;69.10
58993;DHT22;44782;0.000;0.000;2023-12-28T11:42:58;19.20;69.50
58993;DHT22;44782;0.000;0.000;2023-12-28T11:45:16;19.20;69.50
58993;DHT22;44782;0.000;0.000;2023-12-28T11:47:33;19.20;69.80
58993;DHT22;44782;0.000;0.000;2023-12-28T11:49:49;19.10;69.80
58993;DHT22;44782;0.000;0.000;2023-12-28T11:52:08;19.10;69.50
58993;DHT22;44782;0.000;0.000;2023-12-28T11:54:25;19.10;69.60
58993;DHT22;44782;0.000;0.000;2023-12-28T11:56:41;19.20;69.50
58993;DHT22;44782;0.000;0.000;2023-12-28T11:58:57;19.20;70.20
58993;DHT22;44782;0.000;0.000;2023-12-28T12:01:14;19.10;69.40
58993;DHT22;44782;0.000;0.000;2023-12-28T12:03:29;19.10;69.50
58993;DHT22;44782;0.000;0.000;2023-12-28T12:05:45;19.10;69.80
58993;DHT22;44782;0.000;0.000;2023-12-28T12:08:01;19.10;69.70
58993;DHT22;44782;0.000;0.000;2023-12-28T12:10:16;19.20;69.80
58993;DHT22;44782;0.000;0.000;2023-12-28T12:12:32;19.20;69.80
58993;DHT22;44782;0.000;0.000;2023-12-28T12:14:48;19.20;70.30
58993;DHT22;44782;0.000;0.000;2023-12-28T12:17:04;19.20;69.90
58993;DHT22;44782;0.000;0.000;2023-12-28T12:19:19;19.20;69.90
58993;DHT22;44782;0.000;0.000;2023-12-28T12:21:35;19.20;69.90
58993;DHT22;44782;0.000;0.000;2023-12-28T12:23:51;19.20;69.90
58993;DHT22;44782;0.000;0.000;2023-12-28T12:26:07;19.20;69.80
58993;DHT22;44782;0.000;0.000;2023-12-28T12:28:23;19.20;69.80
58993;DHT22;44782;0.000;0.000;2023-12-28T12:30:39;19.20;69.40
58993;DHT22;44782;0.000;0.000;2023-12-28T12:32:54;19.20;69.60
58993;DHT22;44782;0.000;0.000;2023-12-28T12:35:11;19.20;70.30
58993;DHT22;44782;0.000;0.000;2023-12-28T12:37:27;19.20;69.40
58993;DHT22;44782;0.000;0.000;2023-12-28T12:39:43;19.20;69.40
58993;DHT22;44782;0.000;0.000;2023-12-28T12:41:59;19.20;69.10
58993;DHT22;44782;0.000;0.000;2023-12-28T12:44:15;19.20;69.20
58993;DHT22;44782;0.000;0.000;2023-12-28T12:46:32;19.30;69.10
58993;DHT22;44782;0.000;0.000;2023-12-28T12:48:58;19.20;68.50
58993;DHT22;44782;0.000;0.000;2023-12-28T12:51:15;19.20;68.60
58993;DHT22;44782;0.000;0.000;2023-12-28T12:53:36;19.20;68.60
58993;DHT22;44782;0.000;0.000;2023-12-28T12:55:54;19.30;68.60
58993;DHT22;44782;0.000;0.000;2023-12-28T12:58:10;19.30;68.40
58993;DHT22;44782;0.000;0.000;2023-12-28T13:00:28;19.30;68.50
58993;DHT22;44782;0.000;0.000;2023-12-28T13:02:44;19.30;68.60
58993;DHT22;44782;0.000;0.000;2023-12-28T13:05:00;19.30;68.50
58993;DHT22;44782;0.000;0.000;2023-12-28T13:07:16;19.30;68.50
58993;DHT22;44782;0.000;0.000;2023-12-28T13:09:31;19.30;68.40
58993;DHT22;44782;0.000;0.000;2023-12-28T13:11:48;19.30;68.30
58993;DHT22;44782;0.000;0.000;2023-12-28T13:14:05;19.30;68.30
58993;DHT22;44782;0.000;0.000;2023-12-28T13:16:21;19.30;68.30
58993;DHT22;44782;0.000;0.000;2023-12-28T13:18:36;19.30;68.20
58993;DHT22;44782;0.000;0.000;2023-12-28T13:20:52;19.30;68.20
58993;DHT22;44782;0.000;0.000;2023-12-28T13:23:08;19.30;68.20
58993;DHT22;44782;0.000;0.000;2023-12-28T13:25:24;19.30;68.10
58993;DHT22;44782;0.000;0.000;2023-12-28T13:27:39;19.30;68.00
58993;DHT22;44782;0.000;0.000;2023-12-28T13:29:55;19.30;68.10
58993;DHT22;44782;0.000;0.000;2023-12-28T13:32:11;19.30;68.00
58993;DHT22;44782;0.000;0.000;2023-12-28T13:34:27;19.30;68.00
58993;DHT22;44782;0.000;0.000;2023-12-28T13:36:44;19.30;67.90
58993;DHT22;44782;0.000;0.000;2023-12-28T13:38:59;19.30;67.90
58993;DHT22;44782;0.000;0.000;2023-12-28T13:41:15;19.30;67.90
58993;DHT22;44782;0.000;0.000;2023-12-28T13:43:31;19.30;67.90
58993;DHT22;44782;0.000;0.000;2023-12-28T13:45:47;19.30;67.90
58993;DHT22;44782;0.000;0.000;2023-12-28T13:48:03;19.30;67.80
58993;DHT22;44782;0.000;0.000;2023-12-28T13:50:18;19.30;67.80
58993;DHT22;44782;0.000;0.000;2023-12-28T13:52:35;19.30;67.90
58993;DHT22;44782;0.000;0.000;2023-12-28T13:54:51;19.30;67.80
58993;DHT22;44782;0.000;0.000;2023-12-28T13:57:06;19.30;67.80
58993;DHT22;44782;0.000;0.000;2023-12-28T13:59:22;19.30;67.80
58993;DHT22;44782;0.000;0.000;2023-12-28T14:01:38;19.30;67.90
58993;DHT22;44782;0.000;0.000;2023-12-28T14:03:54;19.30;67.90
58993;DHT22;44782;0.000;0.000;2023-12-28T14:06:10;19.30;67.60
58993;DHT22;44782;0.000;0.000;2023-12-28T14:08:26;19.30;67.60
58993;DHT22;44782;0.000;0.000;2023-12-28T14:10:41;19.30;67.60
58993;DHT22;44782;0.000;0.000;2023-12-28T14:12:57;19.20;67.50
58993;DHT22;44782;0.000;0.000;2023-12-28T14:15:13;19.20;67.40
58993;DHT22;44782;0.000;0.000;2023-12-28T14:17:31;19.20;67.40
58993;DHT22;44782;0.000;0.000;2023-12-28T14:19:46;19.20;67.20
58993;DHT22;44782;0.000;0.000;2023-12-28T14:22:03;19.20;67.20
58993;DHT22;44782;0.000;0.000;2023-12-28T14:24:19;19.20;67.40
58993;DHT22;44782;0.000;0.000;2023-12-28T14:26:35;19.20;67.30
58993;DHT22;44782;0.000;0.000;2023-12-28T14:28:55;19.20;67.30
58993;DHT22;44782;0.000;0.000;2023-12-28T14:31:12;19.20;67.40
58993;DHT22;44782;0.000;0.000;2023-12-28T14:33:28;19.20;67.20
58993;DHT22;44782;0.000;0.000;2023-12-28T14:35:44;19.20;67.20
58993;DHT22;44782;0.000;0.000;2023-12-28T14:38:00;19.20;67.10
58993;DHT22;44782;0.000;0.000;2023-12-28T14:40:16;19.20;67.90
58993;DHT22;44782;0.000;0.000;2023-12-28T14:42:34;19.20;67.00
58993;DHT22;44782;0.000;0.000;2023-12-28T14:44:50;19.20;66.90